createdAt,value
2017-10-08T00:03:11.245Z,99.99
2017-10-08T00:13:10.639Z,99.99
2017-10-08T00:23:10.702Z,99.99
2017-10-08T00:33:10.675Z,99.99
2017-10-08T00:43:10.930Z,99.99
2017-10-08T00:53:10.690Z,99.99
2017-10-08T01:03:10.681Z,99.99
2017-10-08T01:13:10.702Z,99.99
2017-10-08T01:23:10.776Z,99.99
2017-10-08T01:33:10.650Z,99.99
2017-10-08T01:43:10.827Z,99.99
2017-10-08T01:53:10.766Z,99.99
2017-10-08T02:03:10.827Z,99.99
2017-10-08T02:13:10.779Z,99.99
2017-10-08T02:23:10.719Z,99.99
2017-10-08T02:33:10.792Z,99.99
2017-10-08T02:43:10.763Z,99.99
2017-10-08T02:53:10.808Z,99.99
2017-10-08T03:03:10.789Z,99.99
2017-10-08T03:13:10.873Z,99.99
2017-10-08T03:23:10.827Z,99.99
2017-10-08T03:33:10.777Z,99.99
2017-10-08T03:43:10.862Z,99.99
2017-10-08T03:53:10.911Z,99.99
2017-10-08T04:03:10.871Z,99.99
2017-10-08T04:13:10.923Z,99.99
2017-10-08T04:23:10.819Z,99.99
2017-10-08T04:33:10.891Z,99.99
2017-10-08T04:43:10.911Z,99.99
2017-10-08T04:53:10.949Z,99.99
2017-10-08T05:03:10.942Z,99.99
2017-10-08T05:13:10.996Z,99.99
2017-10-08T05:23:10.888Z,99.99
2017-10-08T05:33:10.914Z,99.99
2017-10-08T05:43:10.994Z,99.99
2017-10-08T05:53:11.049Z,99.99
2017-10-08T06:03:10.994Z,99.99
2017-10-08T06:13:10.910Z,99.99
2017-10-08T06:23:11.031Z,99.99
2017-10-08T06:33:10.980Z,99.99
2017-10-08T06:43:10.954Z,99.99
2017-10-08T06:53:11.006Z,99.99
2017-10-08T07:03:11.001Z,99.99
2017-10-08T07:13:10.999Z,99.99
2017-10-08T07:23:11.099Z,99.99
2017-10-08T07:33:11.033Z,99.99
2017-10-08T07:43:11.124Z,99.99
2017-10-08T07:53:11.076Z,99.99
2017-10-08T08:03:11.162Z,99.99
2017-10-08T08:13:11.114Z,99.99
2017-10-08T08:23:11.045Z,99.99
2017-10-08T08:33:11.134Z,99.99
2017-10-08T08:43:11.110Z,99.99
2017-10-08T08:53:11.092Z,99.99
2017-10-08T09:03:11.110Z,99.99
2017-10-08T09:13:11.134Z,99.99
2017-10-08T09:23:11.128Z,99.99
2017-10-08T09:33:11.134Z,99.99
2017-10-08T09:43:11.124Z,99.99
2017-10-08T09:53:11.177Z,99.99
2017-10-08T10:03:11.181Z,99.99
2017-10-08T10:13:11.141Z,99.99
2017-10-08T10:23:11.872Z,99.99
2017-10-08T10:33:11.219Z,99.99
2017-10-08T10:43:11.181Z,99.99
2017-10-08T10:53:11.233Z,94.26
2017-10-08T11:03:11.266Z,97.52
2017-10-08T11:13:11.250Z,96.18
2017-10-08T11:23:11.242Z,95.17
2017-10-08T11:33:11.271Z,94.21
2017-10-08T11:43:11.271Z,91.05
2017-10-08T11:53:11.282Z,90.67
2017-10-08T12:03:11.283Z,86.21
2017-10-08T12:13:11.418Z,87.45
2017-10-08T12:23:11.484Z,88.27
2017-10-08T12:33:11.430Z,87.21
2017-10-08T12:43:11.388Z,87.74
2017-10-08T12:53:11.356Z,87.13
2017-10-08T13:03:11.431Z,87.76
2017-10-08T13:13:11.453Z,86.21
2017-10-08T13:23:11.426Z,87.6
2017-10-08T13:33:11.510Z,88.23
2017-10-08T13:43:11.582Z,88.95
2017-10-08T13:53:11.471Z,90.29
2017-10-08T14:03:11.456Z,89.04
2017-10-08T14:13:11.502Z,81.85
2017-10-08T14:23:11.717Z,84.11
2017-10-08T14:33:11.508Z,86.02
2017-10-08T14:43:11.578Z,86.88
2017-10-08T14:53:11.483Z,88.18
2017-10-08T15:03:11.568Z,90.72
2017-10-08T15:13:11.505Z,90.15
2017-10-08T15:23:11.581Z,90.53
2017-10-08T15:33:11.504Z,94.7
2017-10-08T15:43:11.508Z,98.61
2017-10-08T15:53:11.525Z,99.99
2017-10-08T16:03:11.534Z,99.99
2017-10-08T16:13:11.540Z,99.99
2017-10-08T16:23:11.535Z,99.99
2017-10-08T16:33:11.570Z,99.99
2017-10-08T16:43:11.553Z,99.99
2017-10-08T16:53:11.570Z,99.99
2017-10-08T17:03:11.600Z,99.99
2017-10-08T17:13:11.616Z,99.99
2017-10-08T17:23:11.618Z,99.99
2017-10-08T17:33:11.590Z,99.99
2017-10-08T17:43:11.658Z,99.99
2017-10-08T17:53:11.704Z,99.99
2017-10-08T18:03:11.636Z,99.99
2017-10-08T18:13:11.677Z,99.99
2017-10-08T18:23:11.662Z,99.99
2017-10-08T18:33:11.806Z,99.99
2017-10-08T18:43:12.718Z,99.99
2017-10-08T18:53:12.482Z,99.99
2017-10-08T19:03:12.806Z,99.99
2017-10-08T19:13:13.046Z,99.99
2017-10-08T19:23:13.354Z,99.99
2017-10-08T19:33:12.787Z,99.99
2017-10-08T19:43:11.936Z,99.99
2017-10-08T19:53:13.074Z,99.99
2017-10-08T20:03:13.377Z,99.99
2017-10-08T20:13:11.996Z,99.99
2017-10-08T20:23:11.846Z,99.99
2017-10-08T20:33:11.780Z,99.99
2017-10-08T20:43:11.910Z,99.99
2017-10-08T20:53:11.837Z,99.99
2017-10-08T21:03:12.561Z,99.99
2017-10-08T21:13:11.829Z,99.99
2017-10-08T21:23:11.806Z,99.99
2017-10-08T21:33:11.883Z,99.99
2017-10-08T21:43:11.926Z,99.99
2017-10-08T21:53:12.032Z,99.99
2017-10-08T22:03:11.957Z,99.99
2017-10-08T22:13:11.834Z,99.99
2017-10-08T22:23:11.896Z,99.99
2017-10-08T22:33:11.862Z,99.99
2017-10-08T22:43:11.905Z,99.99
2017-10-08T22:53:11.862Z,99.99
2017-10-08T23:03:11.898Z,99.99
2017-10-08T23:13:11.904Z,99.99
2017-10-08T23:23:11.907Z,99.99
2017-10-08T23:33:12.025Z,99.99
2017-10-08T23:43:11.912Z,99.99
2017-10-08T23:53:12.907Z,99.99
